createdAt,value
2019-05-15T00:00:51.804Z,47.31
2019-05-15T00:01:54.473Z,47.33
2019-05-15T00:02:58.819Z,47.32
2019-05-15T00:04:00.981Z,47.32
2019-05-15T00:05:03.216Z,47.31
2019-05-15T00:06:08.253Z,47.31
2019-05-15T00:07:09.740Z,47.29
2019-05-15T00:08:12.373Z,47.30
2019-05-15T00:09:14.605Z,47.30
2019-05-15T00:10:18.128Z,47.30
2019-05-15T00:11:20.523Z,47.29
2019-05-15T00:12:23.143Z,47.29
2019-05-15T00:13:25.368Z,47.27
2019-05-15T00:14:28.808Z,47.28
2019-05-15T00:15:31.307Z,47.27
2019-05-15T00:16:34.232Z,47.24
2019-05-15T00:17:36.470Z,47.24
2019-05-15T00:18:39.336Z,47.24
2019-05-15T00:19:41.649Z,47.24
2019-05-15T00:20:44.258Z,47.24
2019-05-15T00:21:48.841Z,47.22
2019-05-15T00:22:50.840Z,47.22
2019-05-15T00:23:54.397Z,47.21
2019-05-15T00:24:58.127Z,47.22
2019-05-15T00:26:00.527Z,47.21
2019-05-15T00:27:03.147Z,47.23
2019-05-15T00:28:05.409Z,47.21
2019-05-15T00:29:15.073Z,47.23
2019-05-15T00:30:11.897Z,47.21
2019-05-15T00:31:14.513Z,47.22
2019-05-15T00:32:18.634Z,47.19
2019-05-15T00:33:21.065Z,47.17
2019-05-15T00:34:23.337Z,47.19
2019-05-15T00:35:28.566Z,47.16
2019-05-15T00:36:29.780Z,47.16
2019-05-15T00:37:32.357Z,47.15
2019-05-15T00:38:34.558Z,47.17
2019-05-15T00:39:39.063Z,47.17
2019-05-15T00:40:40.989Z,47.16
2019-05-15T00:41:53.304Z,47.17
2019-05-15T00:42:48.822Z,47.16
2019-05-15T00:43:51.675Z,47.16
2019-05-15T00:44:53.866Z,47.16
2019-05-15T00:45:58.563Z,47.12
2019-05-15T00:47:00.276Z,47.11
2019-05-15T00:48:02.864Z,47.14
2019-05-15T00:49:05.116Z,47.14
2019-05-15T00:50:08.903Z,47.13
2019-05-15T00:51:11.270Z,47.12
2019-05-15T00:52:13.847Z,47.12
2019-05-15T00:53:16.070Z,47.12
2019-05-15T00:54:19.147Z,47.12
2019-05-15T00:55:21.558Z,47.08
2019-05-15T00:56:24.142Z,47.09
2019-05-15T00:57:28.242Z,47.07
2019-05-15T00:58:30.587Z,47.08
2019-05-15T00:59:32.794Z,47.08
2019-05-15T01:00:35.388Z,47.06
2019-05-15T01:01:38.243Z,47.06
2019-05-15T01:02:40.962Z,47.06
2019-05-15T01:03:43.188Z,47.06
2019-05-15T01:04:47.872Z,47.04
2019-05-15T01:05:49.610Z,47.06
2019-05-15T01:06:52.732Z,47.04
2019-05-15T01:07:55.068Z,47.04
2019-05-15T01:08:58.862Z,47.04
2019-05-15T01:10:01.252Z,47.02
2019-05-15T01:11:03.827Z,47.03
2019-05-15T01:12:06.041Z,47.01
2019-05-15T01:13:08.773Z,46.99
2019-05-15T01:14:12.178Z,46.99
2019-05-15T01:15:14.935Z,46.97
2019-05-15T01:16:18.650Z,46.97
2019-05-15T01:17:21.436Z,46.95
2019-05-15T01:18:23.638Z,46.97
2019-05-15T01:19:28.604Z,46.97
2019-05-15T01:20:30.069Z,46.94
2019-05-15T01:21:32.655Z,46.94
2019-05-15T01:22:34.859Z,46.94
2019-05-15T01:23:39.091Z,46.93
2019-05-15T01:24:41.330Z,46.92
2019-05-15T01:25:43.909Z,46.92
2019-05-15T01:26:46.119Z,46.93
2019-05-15T01:27:49.059Z,46.92
2019-05-15T01:28:51.407Z,46.89
2019-05-15T01:29:53.987Z,46.92
2019-05-15T01:30:56.190Z,46.90
2019-05-15T01:31:59.282Z,46.93
2019-05-15T01:33:01.583Z,46.88
2019-05-15T01:34:04.170Z,46.90
2019-05-15T01:35:09.218Z,46.90
2019-05-15T01:36:10.595Z,46.87
2019-05-15T01:37:12.798Z,46.88
2019-05-15T01:38:15.386Z,46.85
2019-05-15T01:39:18.483Z,46.87
2019-05-15T01:40:21.175Z,46.87
2019-05-15T01:41:23.447Z,46.84
2019-05-15T01:42:27.860Z,46.84
2019-05-15T01:43:29.915Z,46.79
2019-05-15T01:44:32.520Z,46.79
2019-05-15T01:45:34.718Z,46.80
2019-05-15T01:46:39.389Z,46.81
2019-05-15T01:47:41.147Z,46.77
2019-05-15T01:48:43.832Z,46.78
2019-05-15T01:49:46.036Z,46.80
2019-05-15T01:50:49.238Z,46.79
2019-05-15T01:51:51.712Z,46.78
2019-05-15T01:52:54.299Z,46.76
2019-05-15T01:53:58.431Z,46.75
2019-05-15T01:55:00.868Z,46.77
2019-05-15T01:56:04.210Z,46.75
2019-05-15T01:57:09.146Z,46.77
2019-05-15T01:58:10.611Z,46.73
2019-05-15T01:59:13.203Z,46.74
2019-05-15T02:00:15.408Z,46.71
2019-05-15T02:01:19.235Z,46.75
2019-05-15T02:02:21.599Z,46.75
2019-05-15T02:03:24.153Z,46.73
2019-05-15T02:04:28.810Z,46.73
2019-05-15T02:05:30.585Z,46.74
2019-05-15T02:06:32.803Z,46.71
2019-05-15T02:07:35.373Z,46.73
2019-05-15T02:08:39.322Z,46.70
2019-05-15T02:09:41.811Z,46.69
2019-05-15T02:10:44.021Z,46.68
2019-05-15T02:11:48.766Z,46.67
2019-05-15T02:12:50.499Z,46.68
2019-05-15T02:13:53.135Z,46.67
2019-05-15T02:14:55.377Z,46.67
2019-05-15T02:15:58.928Z,46.68
2019-05-15T02:17:01.244Z,46.67
2019-05-15T02:18:03.831Z,46.67
2019-05-15T02:19:06.033Z,46.65
2019-05-15T02:20:08.795Z,46.67
2019-05-15T02:21:11.101Z,46.65
2019-05-15T02:22:13.692Z,46.64
2019-05-15T02:23:15.909Z,46.61
2019-05-15T02:24:19.047Z,46.65
2019-05-15T02:25:21.409Z,46.62
2019-05-15T02:26:23.988Z,46.62
2019-05-15T02:27:26.179Z,46.59
2019-05-15T02:28:28.992Z,46.61
2019-05-15T02:29:32.487Z,46.58
2019-05-15T02:30:35.058Z,46.55
2019-05-15T02:31:39.108Z,46.58
2019-05-15T02:32:41.477Z,46.60
2019-05-15T02:33:43.691Z,46.58
2019-05-15T02:34:49.736Z,46.52
2019-05-15T02:35:50.532Z,46.57
2019-05-15T02:36:53.182Z,46.58
2019-05-15T02:37:55.382Z,46.58
2019-05-15T02:38:59.702Z,46.58
2019-05-15T02:40:01.848Z,46.58
2019-05-15T02:41:04.425Z,46.52
2019-05-15T02:42:09.549Z,46.59
2019-05-15T02:43:10.885Z,46.57
2019-05-15T02:44:13.094Z,46.58
2019-05-15T02:45:19.249Z,46.58
2019-05-15T02:46:19.810Z,46.58
2019-05-15T02:47:22.568Z,46.56
2019-05-15T02:48:24.774Z,46.53
2019-05-15T02:49:30.111Z,46.57
2019-05-15T02:50:31.267Z,46.55
2019-05-15T02:51:33.848Z,46.55
2019-05-15T02:52:38.835Z,46.51
2019-05-15T02:53:40.275Z,46.54
2019-05-15T02:54:42.495Z,46.54
2019-05-15T02:55:45.079Z,46.57
2019-05-15T02:56:49.452Z,46.55
2019-05-15T02:57:51.500Z,46.55
2019-05-15T02:58:53.694Z,46.52
2019-05-15T02:59:59.277Z,46.50
2019-05-15T03:01:00.122Z,46.52
2019-05-15T03:02:02.696Z,46.50
2019-05-15T03:03:04.908Z,46.48
2019-05-15T03:04:09.287Z,46.48
2019-05-15T03:05:11.370Z,46.48
2019-05-15T03:06:13.946Z,46.49
2019-05-15T03:07:19.001Z,46.48
2019-05-15T03:08:20.356Z,46.49
2019-05-15T03:09:22.575Z,46.49
2019-05-15T03:10:25.151Z,46.44
2019-05-15T03:11:29.486Z,46.42
2019-05-15T03:12:31.575Z,46.41
2019-05-15T03:13:33.786Z,46.46
2019-05-15T03:14:39.586Z,46.42
2019-05-15T03:15:40.907Z,46.43
2019-05-15T03:16:43.575Z,46.46
2019-05-15T03:17:45.794Z,46.44
2019-05-15T03:18:50.472Z,46.43
2019-05-15T03:19:52.212Z,46.39
2019-05-15T03:20:54.804Z,46.43
2019-05-15T03:21:59.774Z,46.42
2019-05-15T03:23:01.241Z,46.42
2019-05-15T03:24:03.442Z,46.42
2019-05-15T03:25:10.084Z,46.42
2019-05-15T03:26:09.861Z,46.42
2019-05-15T03:27:12.406Z,46.40
2019-05-15T03:28:19.751Z,46.40
2019-05-15T03:29:22.735Z,46.40
2019-05-15T03:30:24.945Z,46.36
2019-05-15T03:31:43.507Z,46.36
2019-05-15T03:32:40.959Z,46.38
2019-05-15T03:33:37.327Z,46.38
2019-05-15T03:34:46.849Z,46.35
2019-05-15T03:35:44.849Z,46.40
2019-05-15T03:36:52.371Z,46.38
2019-05-15T03:37:51.597Z,46.39
2019-05-15T03:38:53.778Z,46.38
2019-05-15T03:39:59.209Z,46.38
2019-05-15T03:41:00.240Z,46.36
2019-05-15T03:42:02.813Z,46.35
2019-05-15T03:43:05.020Z,46.33
2019-05-15T03:44:09.482Z,46.33
2019-05-15T03:45:11.487Z,46.34
2019-05-15T03:46:14.064Z,46.33
2019-05-15T03:47:19.167Z,46.31
2019-05-15T03:48:20.524Z,46.43
2019-05-15T03:49:22.742Z,46.40
2019-05-15T03:50:25.308Z,46.34
2019-05-15T03:51:28.914Z,46.35
2019-05-15T03:52:31.784Z,46.30
2019-05-15T03:53:33.992Z,46.27
2019-05-15T03:54:39.208Z,46.28
2019-05-15T03:55:40.941Z,46.34
2019-05-15T03:56:43.732Z,46.30
2019-05-15T03:57:45.938Z,46.31
2019-05-15T03:58:49.269Z,46.34
2019-05-15T03:59:51.821Z,46.31
2019-05-15T04:00:54.401Z,46.34
2019-05-15T04:01:59.705Z,46.36
2019-05-15T04:03:00.825Z,46.32
2019-05-15T04:04:03.041Z,46.28
2019-05-15T04:05:05.593Z,46.26
2019-05-15T04:06:10.149Z,46.28
2019-05-15T04:07:12.595Z,46.39
2019-05-15T04:08:14.795Z,46.35
2019-05-15T04:09:18.929Z,46.28
2019-05-15T04:10:21.294Z,46.28
2019-05-15T04:11:23.876Z,46.28
2019-05-15T04:12:28.795Z,46.27
2019-05-15T04:13:30.347Z,46.24
2019-05-15T04:14:32.516Z,46.22
2019-05-15T04:15:35.092Z,46.25
2019-05-15T04:16:39.126Z,46.23
2019-05-15T04:17:41.557Z,46.24
2019-05-15T04:18:43.755Z,46.25
2019-05-15T04:19:49.518Z,46.18
2019-05-15T04:20:50.348Z,46.22
2019-05-15T04:21:52.928Z,46.22
2019-05-15T04:22:55.134Z,46.21
2019-05-15T04:23:58.807Z,46.22
2019-05-15T04:25:01.140Z,46.22
2019-05-15T04:26:03.736Z,46.18
2019-05-15T04:27:10.172Z,46.17
2019-05-15T04:28:10.269Z,46.19
2019-05-15T04:29:12.491Z,46.15
2019-05-15T04:30:15.070Z,46.19
2019-05-15T04:31:19.402Z,46.18
2019-05-15T04:32:21.569Z,46.16
2019-05-15T04:33:23.758Z,46.12
2019-05-15T04:34:29.037Z,46.16
2019-05-15T04:35:30.191Z,46.17
2019-05-15T04:36:32.807Z,46.11
2019-05-15T04:37:35.019Z,46.15
2019-05-15T04:38:39.349Z,46.15
2019-05-15T04:39:41.474Z,46.15
2019-05-15T04:40:44.070Z,46.16
2019-05-15T04:41:46.276Z,46.12
2019-05-15T04:42:49.805Z,46.12
2019-05-15T04:43:52.243Z,46.12
2019-05-15T04:44:54.830Z,46.13
2019-05-15T04:45:59.242Z,46.14
2019-05-15T04:47:01.279Z,46.12
2019-05-15T04:48:03.531Z,46.15
2019-05-15T04:49:09.046Z,46.15
2019-05-15T04:50:10.101Z,46.15
2019-05-15T04:51:13.380Z,46.14
2019-05-15T04:52:15.571Z,46.13
2019-05-15T04:53:19.289Z,46.12
2019-05-15T04:54:21.692Z,46.12
2019-05-15T04:55:24.336Z,46.14
2019-05-15T04:56:29.367Z,46.13
2019-05-15T04:57:34.093Z,46.15
2019-05-15T04:58:34.754Z,46.15
2019-05-15T04:59:38.989Z,46.16
2019-05-15T05:00:41.517Z,46.14
2019-05-15T05:01:44.094Z,46.12
2019-05-15T05:02:49.490Z,46.14
2019-05-15T05:03:50.556Z,46.14
2019-05-15T05:04:52.780Z,46.13
2019-05-15T05:05:58.789Z,46.14
2019-05-15T05:06:59.375Z,46.12
2019-05-15T05:08:02.985Z,46.14
2019-05-15T05:09:08.931Z,46.15
2019-05-15T05:10:29.722Z,46.12
2019-05-15T05:11:31.987Z,46.13
2019-05-15T05:12:34.566Z,46.11
2019-05-15T05:13:39.293Z,46.11
2019-05-15T05:14:41.037Z,46.11
2019-05-15T05:15:43.257Z,46.12
2019-05-15T05:16:48.664Z,46.12
2019-05-15T05:17:49.731Z,46.09
2019-05-15T05:18:52.325Z,46.11
2019-05-15T05:19:54.520Z,46.11
2019-05-15T05:20:57.747Z,46.11
2019-05-15T05:22:00.103Z,46.12
2019-05-15T05:23:02.683Z,46.11
2019-05-15T05:24:04.895Z,46.07
2019-05-15T05:25:08.050Z,46.12
2019-05-15T05:26:11.299Z,46.13
2019-05-15T05:27:13.986Z,46.09
2019-05-15T05:28:18.140Z,46.11
2019-05-15T05:29:20.433Z,46.12
2019-05-15T05:30:22.660Z,46.11
2019-05-15T05:31:25.236Z,46.09
2019-05-15T05:32:34.546Z,46.09
2019-05-15T05:33:31.733Z,46.13
2019-05-15T05:34:33.951Z,46.12
2019-05-15T05:35:38.599Z,46.11
2019-05-15T05:36:40.379Z,46.12
2019-05-15T05:37:42.983Z,46.13
2019-05-15T05:38:45.193Z,46.13
2019-05-15T05:39:48.377Z,46.14
2019-05-15T05:40:50.684Z,46.16
2019-05-15T05:41:53.264Z,46.13
2019-05-15T05:42:55.480Z,46.15
2019-05-15T05:43:58.724Z,46.12
2019-05-15T05:45:00.975Z,46.14
2019-05-15T05:46:03.571Z,46.14
2019-05-15T05:47:05.790Z,46.14
2019-05-15T05:48:08.855Z,46.17
2019-05-15T05:49:11.203Z,46.14
2019-05-15T05:50:13.781Z,46.14
2019-05-15T05:51:15.990Z,46.14
2019-05-15T05:52:18.759Z,46.16
2019-05-15T05:53:21.569Z,46.17
2019-05-15T05:54:24.338Z,46.17
2019-05-15T05:55:28.345Z,46.17
2019-05-15T05:56:30.866Z,46.19
2019-05-15T05:57:33.092Z,46.17
2019-05-15T05:58:35.787Z,46.16
2019-05-15T05:59:38.684Z,46.17
2019-05-15T06:00:41.404Z,46.17
2019-05-15T06:01:44.282Z,46.19
2019-05-15T06:02:51.921Z,46.17
2019-05-15T06:03:50.972Z,46.16
2019-05-15T06:04:53.551Z,46.14
2019-05-15T06:05:58.821Z,46.15
2019-05-15T06:07:07.137Z,46.16
2019-05-15T06:08:03.903Z,46.15
2019-05-15T06:09:09.042Z,46.14
2019-05-15T06:10:10.677Z,46.15
2019-05-15T06:11:13.304Z,46.12
2019-05-15T06:12:15.520Z,46.12
2019-05-15T06:13:18.570Z,46.15
2019-05-15T06:14:21.027Z,46.12
2019-05-15T06:15:23.610Z,46.11
2019-05-15T06:16:28.218Z,46.14
2019-05-15T06:17:30.211Z,46.12
2019-05-15T06:18:32.441Z,46.13
2019-05-15T06:19:35.116Z,46.13
2019-05-15T06:20:39.501Z,46.13
2019-05-15T06:21:53.761Z,46.12
2019-05-15T06:22:47.766Z,46.11
2019-05-15T06:23:55.753Z,46.10
2019-05-15T06:24:53.653Z,46.12
2019-05-15T06:25:56.259Z,46.09
2019-05-15T06:26:58.723Z,46.11
2019-05-15T06:28:01.423Z,46.11
2019-05-15T06:29:03.623Z,46.10
2019-05-15T06:30:08.616Z,46.09
2019-05-15T06:31:10.066Z,46.10
2019-05-15T06:32:12.643Z,46.07
2019-05-15T06:33:14.864Z,46.09
2019-05-15T06:34:17.933Z,46.08
2019-05-15T06:35:20.526Z,46.10
2019-05-15T06:36:23.107Z,46.11
2019-05-15T06:37:28.608Z,46.08
2019-05-15T06:38:30.902Z,46.10
2019-05-15T06:39:33.502Z,46.07
2019-05-15T06:40:36.115Z,46.07
2019-05-15T06:41:39.005Z,46.10
2019-05-15T06:42:41.800Z,46.07
2019-05-15T06:43:44.032Z,46.10
2019-05-15T06:44:48.373Z,46.11
2019-05-15T06:45:50.488Z,46.10
2019-05-15T06:46:53.068Z,46.06
2019-05-15T06:47:55.284Z,46.11
2019-05-15T06:48:58.218Z,46.10
2019-05-15T06:50:00.547Z,46.10
2019-05-15T06:51:04.255Z,46.07
2019-05-15T06:52:08.661Z,46.09
2019-05-15T06:53:11.053Z,46.14
2019-05-15T06:54:13.222Z,46.11
2019-05-15T06:55:18.185Z,46.08
2019-05-15T06:56:19.701Z,46.10
2019-05-15T06:57:22.271Z,46.12
2019-05-15T06:58:25.248Z,46.11
2019-05-15T06:59:28.664Z,46.12
2019-05-15T07:00:30.984Z,46.13
2019-05-15T07:01:33.657Z,46.12
2019-05-15T07:02:37.938Z,46.11
2019-05-15T07:03:40.209Z,46.12
2019-05-15T07:04:42.547Z,46.15
2019-05-15T07:05:45.125Z,46.13
2019-05-15T07:06:48.995Z,46.14
2019-05-15T07:07:51.716Z,46.14
2019-05-15T07:08:54.044Z,46.12
2019-05-15T07:09:58.216Z,46.14
2019-05-15T07:11:00.614Z,46.14
2019-05-15T07:12:03.233Z,46.13
2019-05-15T07:13:05.538Z,46.13
2019-05-15T07:14:09.150Z,46.14
2019-05-15T07:15:11.379Z,46.13
2019-05-15T07:16:15.147Z,46.14
2019-05-15T07:17:17.783Z,46.15
2019-05-15T07:18:20.443Z,46.14
2019-05-15T07:19:22.669Z,46.14
2019-05-15T07:20:25.242Z,46.15
2019-05-15T07:21:28.481Z,46.18
2019-05-15T07:22:31.252Z,46.17
2019-05-15T07:23:33.458Z,46.17
2019-05-15T07:24:38.211Z,46.15
2019-05-15T07:25:39.995Z,46.15
2019-05-15T07:26:42.583Z,46.14
2019-05-15T07:27:44.927Z,46.31
2019-05-15T07:28:48.645Z,47.23
2019-05-15T07:29:51.019Z,47.41
2019-05-15T07:30:53.589Z,48.09
2019-05-15T07:31:55.790Z,48.27
2019-05-15T07:32:58.761Z,48.24
2019-05-15T07:34:01.084Z,48.18
2019-05-15T07:35:05.752Z,48.15
2019-05-15T07:36:08.533Z,48.12
2019-05-15T07:37:11.142Z,47.87
2019-05-15T07:38:15.152Z,48.15
2019-05-15T07:39:18.078Z,48.33
2019-05-15T07:40:20.355Z,48.40
2019-05-15T07:41:22.941Z,48.18
2019-05-15T07:42:25.143Z,48.40
2019-05-15T07:43:28.122Z,48.25
2019-05-15T07:44:30.445Z,48.25
2019-05-15T07:45:33.027Z,48.20
2019-05-15T07:46:35.231Z,48.31
2019-05-15T07:47:38.669Z,48.36
2019-05-15T07:48:43.949Z,48.25
2019-05-15T07:49:49.015Z,48.37
2019-05-15T07:50:50.581Z,48.39
2019-05-15T07:51:53.151Z,48.24
2019-05-15T07:52:55.572Z,48.11
2019-05-15T07:53:58.471Z,48.38
2019-05-15T07:55:00.765Z,48.24
2019-05-15T07:56:03.350Z,48.34
2019-05-15T07:57:05.623Z,48.34
2019-05-15T07:58:08.614Z,48.33
2019-05-15T07:59:13.735Z,48.31
2019-05-15T08:00:18.558Z,48.41
2019-05-15T08:01:20.190Z,48.19
2019-05-15T08:02:22.781Z,48.29
2019-05-15T08:03:25.149Z,48.20
2019-05-15T08:04:30.530Z,48.31
2019-05-15T08:05:31.595Z,48.38
2019-05-15T08:06:34.306Z,48.37
2019-05-15T08:07:38.632Z,48.33
2019-05-15T08:08:40.785Z,48.27
2019-05-15T08:09:45.831Z,48.32
2019-05-15T08:10:49.175Z,48.22
2019-05-15T08:11:51.554Z,48.36
2019-05-15T08:12:54.141Z,48.32
2019-05-15T08:13:58.176Z,48.24
2019-05-15T08:15:00.628Z,48.22
2019-05-15T08:16:02.822Z,48.17
2019-05-15T08:17:05.405Z,48.25
2019-05-15T08:18:11.911Z,48.24
2019-05-15T08:19:11.944Z,48.08
2019-05-15T08:20:14.229Z,48.19
2019-05-15T08:21:18.580Z,48.24
2019-05-15T08:22:20.678Z,48.26
2019-05-15T08:23:23.390Z,48.25
2019-05-15T08:24:29.539Z,48.19
2019-05-15T08:25:35.095Z,48.18
2019-05-15T08:26:33.732Z,48.24
2019-05-15T08:27:38.237Z,48.29
2019-05-15T08:28:42.499Z,48.30
2019-05-15T08:29:45.110Z,48.18
2019-05-15T08:30:49.448Z,48.26
2019-05-15T08:31:51.638Z,48.22
2019-05-15T08:32:53.894Z,48.20
2019-05-15T08:34:12.002Z,48.23
2019-05-15T08:35:00.492Z,48.30
2019-05-15T08:36:03.079Z,48.14
2019-05-15T08:37:05.392Z,48.13
2019-05-15T08:38:08.862Z,48.18
2019-05-15T08:39:11.242Z,48.21
2019-05-15T08:40:13.870Z,48.30
2019-05-15T08:41:18.349Z,48.26
2019-05-15T08:42:20.460Z,48.11
2019-05-15T08:43:22.731Z,48.22
2019-05-15T08:44:25.334Z,48.18
2019-05-15T08:45:28.308Z,48.23
2019-05-15T08:46:30.954Z,48.17
2019-05-15T08:47:33.139Z,48.26
2019-05-15T08:48:38.142Z,48.19
2019-05-15T08:49:40.895Z,48.28
2019-05-15T08:50:43.939Z,48.25
2019-05-15T08:51:48.483Z,48.18
2019-05-15T08:52:50.391Z,48.26
2019-05-15T08:53:52.612Z,48.20
2019-05-15T08:54:55.191Z,48.27
2019-05-15T08:55:58.788Z,48.10
2019-05-15T08:57:01.552Z,48.20
2019-05-15T08:58:08.050Z,48.04
2019-05-15T08:59:08.853Z,47.63
2019-05-15T09:00:11.305Z,47.77
2019-05-15T09:01:14.067Z,48.14
2019-05-15T09:02:18.459Z,48.15
2019-05-15T09:03:20.526Z,48.10
2019-05-15T09:04:30.748Z,48.10
2019-05-15T09:05:28.310Z,48.14
2019-05-15T09:06:30.564Z,48.13
2019-05-15T09:07:33.130Z,48.15
2019-05-15T09:08:35.396Z,48.15
2019-05-15T09:09:38.363Z,48.03
2019-05-15T09:10:40.675Z,48.09
2019-05-15T09:11:43.438Z,48.07
2019-05-15T09:12:45.641Z,48.08
2019-05-15T09:13:53.462Z,48.10
2019-05-15T09:14:52.126Z,48.08
2019-05-15T09:15:54.698Z,48.12
2019-05-15T09:16:58.249Z,48.09
2019-05-15T09:18:14.381Z,48.00
2019-05-15T09:19:04.910Z,48.06
2019-05-15T09:20:08.128Z,47.96
2019-05-15T09:21:10.513Z,47.58
2019-05-15T09:22:13.339Z,47.72
2019-05-15T09:23:15.561Z,47.95
2019-05-15T09:24:19.859Z,48.00
2019-05-15T09:25:22.119Z,47.96
2019-05-15T09:26:24.701Z,47.98
2019-05-15T09:27:27.862Z,47.95
2019-05-15T09:28:30.537Z,47.96
2019-05-15T09:29:32.757Z,47.95
2019-05-15T09:30:35.363Z,47.92
2019-05-15T09:31:39.216Z,47.97
2019-05-15T09:32:41.998Z,47.91
2019-05-15T09:33:44.203Z,47.95
2019-05-15T09:34:54.180Z,47.94
2019-05-15T09:35:50.763Z,47.98
2019-05-15T09:36:59.770Z,48.01
2019-05-15T09:38:00.340Z,48.02
2019-05-15T09:39:04.131Z,47.79
2019-05-15T09:40:08.602Z,47.66
2019-05-15T09:41:10.588Z,47.60
2019-05-15T09:42:12.783Z,47.85
2019-05-15T09:43:15.394Z,47.96
2019-05-15T09:44:21.487Z,47.87
2019-05-15T09:45:21.869Z,47.94
2019-05-15T09:46:24.112Z,47.94
2019-05-15T09:47:29.494Z,47.87
2019-05-15T09:48:30.558Z,47.55
2019-05-15T09:49:33.135Z,47.02
2019-05-15T09:50:35.336Z,47.24
2019-05-15T09:51:38.469Z,47.63
2019-05-15T09:52:40.975Z,47.71
2019-05-15T09:53:43.593Z,47.62
2019-05-15T09:54:45.831Z,47.66
2019-05-15T09:55:49.467Z,47.69
2019-05-15T09:56:52.071Z,47.42
2019-05-15T09:57:55.198Z,46.86
2019-05-15T09:58:58.155Z,46.15
2019-05-15T10:00:00.858Z,45.53
2019-05-15T10:01:03.064Z,45.47
2019-05-15T10:02:05.792Z,44.84
2019-05-15T10:03:09.596Z,44.75
2019-05-15T10:04:12.275Z,44.66
2019-05-15T10:05:18.520Z,44.86
2019-05-15T10:06:20.882Z,44.75
2019-05-15T10:07:23.071Z,45.12
2019-05-15T10:08:29.037Z,45.38
2019-05-15T10:09:29.640Z,46.46
2019-05-15T10:10:32.225Z,46.36
2019-05-15T10:11:34.437Z,46.08
2019-05-15T10:12:38.708Z,45.20
2019-05-15T10:13:40.942Z,45.83
2019-05-15T10:14:43.535Z,45.71
2019-05-15T10:15:49.972Z,46.27
2019-05-15T10:16:49.993Z,46.79
2019-05-15T10:17:52.209Z,46.62
2019-05-15T10:18:54.841Z,46.74
2019-05-15T10:19:58.238Z,46.93
2019-05-15T10:21:00.934Z,47.08
2019-05-15T10:22:03.151Z,46.06
2019-05-15T10:23:05.731Z,46.26
2019-05-15T10:24:09.490Z,46.76
2019-05-15T10:25:12.274Z,47.17
2019-05-15T10:26:14.668Z,46.96
2019-05-15T10:27:18.041Z,47.20
2019-05-15T10:28:20.369Z,47.04
2019-05-15T10:29:23.122Z,46.86
2019-05-15T10:30:28.246Z,46.74
2019-05-15T10:31:29.681Z,46.94
2019-05-15T10:32:31.935Z,47.30
2019-05-15T10:33:34.505Z,47.46
2019-05-15T10:34:38.460Z,47.24
2019-05-15T10:35:41.163Z,47.38
2019-05-15T10:36:43.364Z,46.80
2019-05-15T10:37:48.525Z,46.23
2019-05-15T10:38:49.876Z,45.65
2019-05-15T10:39:52.922Z,45.35
2019-05-15T10:41:07.516Z,45.89
2019-05-15T10:41:59.473Z,46.19
2019-05-15T10:43:01.683Z,46.80
2019-05-15T10:44:04.259Z,46.95
2019-05-15T10:45:08.356Z,47.08
2019-05-15T10:46:13.408Z,47.25
2019-05-15T10:47:14.603Z,47.12
2019-05-15T10:48:18.924Z,46.06
2019-05-15T10:49:21.035Z,45.68
2019-05-15T10:50:23.638Z,45.79
2019-05-15T10:51:28.430Z,46.19
2019-05-15T10:52:30.113Z,46.54
2019-05-15T10:53:32.340Z,46.49
2019-05-15T10:54:34.946Z,46.53
2019-05-15T10:55:39.498Z,46.98
2019-05-15T10:56:41.489Z,47.01
2019-05-15T10:57:44.681Z,47.30
2019-05-15T10:58:50.143Z,47.18
2019-05-15T10:59:51.355Z,47.39
2019-05-15T11:00:53.970Z,47.32
2019-05-15T11:01:56.177Z,47.32
2019-05-15T11:02:58.780Z,47.41
2019-05-15T11:04:00.971Z,47.52
2019-05-15T11:05:03.559Z,47.36
2019-05-15T11:06:09.098Z,47.54
2019-05-15T11:07:10.028Z,47.61
2019-05-15T11:08:12.218Z,47.54
2019-05-15T11:09:14.795Z,47.58
2019-05-15T11:10:18.543Z,47.54
2019-05-15T11:11:21.561Z,47.49
2019-05-15T11:12:23.827Z,47.77
2019-05-15T11:13:28.649Z,47.81
2019-05-15T11:14:30.301Z,47.77
2019-05-15T11:15:32.897Z,47.70
2019-05-15T11:16:35.662Z,47.83
2019-05-15T11:17:38.668Z,47.65
2019-05-15T11:18:41.183Z,47.73
2019-05-15T11:19:44.235Z,47.73
2019-05-15T11:20:48.616Z,47.81
2019-05-15T11:21:50.706Z,47.81
2019-05-15T11:22:52.916Z,47.96
2019-05-15T11:23:58.827Z,48.05
2019-05-15T11:24:59.534Z,48.09
2019-05-15T11:26:02.248Z,47.86
2019-05-15T11:27:04.475Z,47.93
2019-05-15T11:28:08.586Z,47.82
2019-05-15T11:29:10.702Z,47.92
2019-05-15T11:30:13.304Z,47.87
2019-05-15T11:31:15.727Z,48.12
2019-05-15T11:32:18.348Z,48.17
2019-05-15T11:33:20.541Z,47.97
2019-05-15T11:34:23.103Z,48.01
2019-05-15T11:35:25.307Z,47.92
2019-05-15T11:36:28.827Z,47.62
2019-05-15T11:37:31.210Z,47.00
2019-05-15T11:38:33.803Z,47.14
2019-05-15T11:39:36.120Z,47.35
2019-05-15T11:40:39.034Z,47.56
2019-05-15T11:41:41.319Z,47.84
2019-05-15T11:42:43.960Z,47.90
2019-05-15T11:43:46.248Z,48.02
2019-05-15T11:44:48.828Z,47.74
2019-05-15T11:45:51.066Z,47.79
2019-05-15T11:46:53.636Z,47.82
2019-05-15T11:47:55.851Z,47.79
2019-05-15T11:48:58.898Z,47.89
2019-05-15T11:50:01.340Z,47.78
2019-05-15T11:51:03.900Z,46.87
2019-05-15T11:52:08.612Z,46.30
2019-05-15T11:53:10.358Z,46.06
2019-05-15T11:54:12.582Z,44.11
2019-05-15T11:55:15.219Z,45.61
2019-05-15T11:56:18.926Z,44.98
2019-05-15T11:57:36.982Z,44.08
2019-05-15T11:58:25.670Z,43.89
2019-05-15T11:59:30.133Z,43.05
2019-05-15T12:00:32.478Z,43.53
2019-05-15T12:01:35.071Z,42.99
2019-05-15T12:02:38.350Z,42.73
2019-05-15T12:03:41.218Z,43.33
2019-05-15T12:04:43.429Z,43.77
2019-05-15T12:05:45.997Z,45.14
2019-05-15T12:06:58.718Z,45.46
2019-05-15T12:07:52.470Z,45.75
2019-05-15T12:08:54.685Z,44.83
2019-05-15T12:09:58.069Z,44.19
2019-05-15T12:11:00.341Z,44.27
2019-05-15T12:12:02.918Z,43.69
2019-05-15T12:13:05.144Z,43.95
2019-05-15T12:14:08.486Z,42.95
2019-05-15T12:15:10.838Z,42.86
2019-05-15T12:16:13.417Z,44.55
2019-05-15T12:17:15.719Z,45.21
2019-05-15T12:18:18.482Z,45.48
2019-05-15T12:19:20.698Z,44.42
2019-05-15T12:20:23.284Z,44.19
2019-05-15T12:21:25.495Z,44.39
2019-05-15T12:22:28.937Z,44.66
2019-05-15T12:23:31.332Z,46.09
2019-05-15T12:24:36.769Z,44.83
2019-05-15T12:25:39.337Z,44.71
2019-05-15T12:26:42.136Z,43.81
2019-05-15T12:27:44.274Z,43.70
2019-05-15T12:28:48.870Z,43.75
2019-05-15T12:29:50.849Z,44.50
2019-05-15T12:30:53.474Z,44.19
2019-05-15T12:31:58.794Z,43.00
2019-05-15T12:33:00.400Z,42.45
2019-05-15T12:34:04.866Z,40.33
2019-05-15T12:35:07.387Z,40.69
2019-05-15T12:36:11.311Z,40.47
2019-05-15T12:37:14.112Z,41.18
2019-05-15T12:38:18.540Z,40.03
2019-05-15T12:39:22.268Z,39.39
2019-05-15T12:59:39.850Z,37.72
2019-05-15T13:00:42.517Z,39.09
2019-05-15T13:01:44.697Z,39.17
2019-05-15T13:02:49.194Z,41.99
2019-05-15T13:03:51.162Z,39.74
2019-05-15T13:04:54.942Z,40.76
2019-05-15T13:05:57.165Z,41.94
2019-05-15T13:07:12.942Z,41.68
2019-05-15T13:08:03.605Z,41.15
2019-05-15T13:09:08.575Z,41.95
2019-05-15T13:10:10.473Z,41.36
2019-05-15T13:11:15.130Z,41.83
2019-05-15T13:12:18.271Z,42.33
2019-05-15T13:13:24.123Z,41.47
2019-05-15T13:14:28.351Z,41.29
2019-05-15T13:15:30.579Z,41.69
2019-05-15T13:16:32.810Z,41.76
2019-05-15T13:17:35.387Z,42.31
2019-05-15T13:18:38.751Z,43.15
2019-05-15T13:19:41.517Z,43.48
2019-05-15T13:20:44.986Z,43.81
2019-05-15T13:21:51.359Z,43.74
2019-05-15T13:23:53.953Z,43.92
2019-05-15T13:24:58.889Z,44.26
2019-05-15T13:26:00.468Z,44.19
2019-05-15T13:27:02.666Z,44.36
2019-05-15T13:28:08.885Z,44.24
2019-05-15T13:29:10.897Z,44.70
2019-05-15T13:30:13.476Z,44.07
2019-05-15T13:31:15.797Z,43.28
2019-05-15T13:32:18.374Z,43.92
2019-05-15T13:33:20.571Z,44.24
2019-05-15T13:34:23.132Z,44.67
2019-05-15T13:35:25.352Z,45.02
2019-05-15T13:36:28.727Z,44.50
2019-05-15T13:37:31.282Z,44.81
2019-05-15T13:38:33.881Z,44.84
2019-05-15T13:39:36.091Z,45.26
2019-05-15T13:40:42.147Z,45.11
2019-05-15T13:41:42.558Z,45.20
2019-05-15T13:42:45.138Z,45.39
2019-05-15T13:43:49.210Z,45.09
2019-05-15T13:44:51.565Z,45.23
2019-05-15T13:45:53.783Z,45.51
2019-05-15T13:46:58.104Z,45.19
2019-05-15T13:48:00.428Z,45.58
2019-05-15T13:49:03.029Z,45.74
2019-05-15T13:50:05.221Z,45.54
2019-05-15T13:51:07.802Z,45.71